Beaumaris, United Kingdom
Current Conditions -  °F | °C
As of 12:50 PM on Monday 20 Oct 2014 (Local Time) from EGOV Reporting Station
Broken Clouds Broken Clouds  
Wind Chill: 57°   Ceiling: 7000
Heat Index: 57°   Visibility: 6mi
Dew Point: 50°   Wind: 22mph
Humidity: 77%   Direction: 230°SW
Pressure: 29.88"   Gusts: NA
Location:  53.26°N, 4.09°W
Report Text: EGOV 201150Z 23019KT 9999 FEW020 BKN070 14/10 Q1012 BLU TEMPO SCT020 WHT
Loading
Personal Weather Stations






























Interactive Weather Map
Tropical Storm Tracking
New forecast layout! Learn more

10-Day Weather Forecast

Advertisements
Track Severe Weather on mobile